Fair Bluff, NC (28439)

5:58 AM EST on February 13, 2016 (GMT -0500)
Nichols | | Change Station
CLOSE
Current Station
Personal Weather Station
Location: Nichols, SC
Elevation: 167 ft
Nearby Weather Stations

Elev 167 ft 34.24 °N, 79.16 °W | Updated 15 minutes ago

Clear
Clear
26.1 °F
Feels Like 26 °F
N
0.0
Wind Variable Wind from NE

Today
High -- | Low -- °F
--% Chance of Precip.
Yesterday
High -- | Low -- °F
Precip. -- in
Pressure 30.12 in
Visibility 5.0 miles
Clouds Clear
Windchill 26 °F
Dew Point 26 °F
Humidity 99%
Rainfall 0.00 in
Snow Depth Not available.
7:03 AM 5:57 PM
Waxing Crescent, 29% visible
METAR KCPC 131035Z AUTO 00000KT 5SM BR CLR M02/M03 A3012 RMK AO2 T10211031
Pressure 30.12 in
Visibility 5.0 miles
Clouds Clear
Windchill 26 °F
Dew Point 26 °F
Humidity 99%
Rainfall 0.00 in
Snow Depth Not available.
7:03 AM 5:57 PM
Waxing Crescent, 29% visible
METAR KCPC 131035Z AUTO 00000KT 5SM BR CLR M02/M03 A3012 RMK AO2 T10211031

10-Day Weather Forecast

Almanac

Astronomy

Feb. 13, 2016 Rise Set
Actual Time
Civil Twilight
Nautical Twilight
Astronomical Twilight
Moon
Length of Visible Light
Length of Day
Tomorrow will be .
, % of the Moon is Illuminated

Today's Extremes

State Highs State Lows

Community

WunderPhotos

Upload Photos

1,892,537 photos uploaded!

WunderBlog® & News

Nearby

Air Quality

  Air Quality AQ Index Pollutant
Not available.

Snow Depth

Station Depth Elevation

Earthquake Activity

City Distance Mag. Time & Date
Minimum magnitude displayed is 2.5.

Coastal Water Temperatures

Place Temperature

Stations

Nearby Weather Stations

Station Location Temp. Windchill Dew Point Humidity Wind Precip. Elev Updated Type
                   

Watches & Warnings

There are currently no watches in effect.